Time;durP1;ratioP1;P1;durP2;ratioP2;P2;SDS_P1;SDS_P2;PMS_P1;PMS_P2;Temp;Humidity;BMP_temperature;BMP_pressure;BME280_temperature;BME280_humidity;BME280_pressure;Samples;Min_cycle;Max_cycle;Signal;HPM_P1;HPM_P2
2021/09/12 00:00:27;;;;;;;7.90;6.38;;;;;;;17.27;57.55;100782.98;463367;112;922658;-78
2021/09/12 00:01:30;;;;;;;7.24;6.54;;;;;;;17.30;57.29;100785.25;462833;112;922596;-78
2021/09/12 00:02:35;;;;;;;7.11;6.45;;;;;;;17.30;57.29;100785.25;462567;112;930930;-79
2021/09/12 00:03:39;;;;;;;7.34;6.48;;;;;;;17.30;57.31;100788.02;463714;112;922935;-78
2021/09/12 00:04:43;;;;;;;7.86;5.76;;;;;;;17.31;57.23;100784.14;463592;112;922596;-78
2021/09/12 00:05:46;;;;;;;8.82;6.71;;;;;;;17.32;57.25;100779.47;462750;112;922918;-78
2021/09/12 00:06:51;;;;;;;7.82;6.44;;;;;;;17.32;57.18;100779.47;465355;112;930521;-78
2021/09/12 00:07:55;;;;;;;10.68;6.16;;;;;;;17.32;57.11;100777.55;464826;112;923335;-78
2021/09/12 00:08:58;;;;;;;8.58;6.59;;;;;;;17.31;57.09;100783.34;455207;115;923653;-78
2021/09/12 00:10:03;;;;;;;10.71;6.25;;;;;;;17.29;57.12;100774.48;451882;116;923076;-78
2021/09/12 00:11:07;;;;;;;9.78;6.26;;;;;;;17.24;57.16;100780.75;454228;112;931230;-77
2021/09/12 00:12:10;;;;;;;6.96;6.21;;;;;;;17.23;57.28;100781.00;453110;115;923044;-76
2021/09/12 00:13:14;;;;;;;10.86;6.49;;;;;;;17.20;57.31;100779.58;453625;114;931119;-77
2021/09/12 00:14:18;;;;;;;7.11;6.54;;;;;;;17.17;57.41;100782.84;455333;114;922949;-78
2021/09/12 00:15:21;;;;;;;11.55;6.22;;;;;;;17.16;57.47;100780.34;460717;112;930460;-78
2021/09/12 00:16:25;;;;;;;10.45;6.22;;;;;;;17.14;57.56;100790.80;462638;112;930412;-78
2021/09/12 00:17:29;;;;;;;6.43;5.89;;;;;;;17.12;57.65;100790.20;463890;112;922590;-78
2021/09/12 00:18:33;;;;;;;6.81;5.91;;;;;;;17.10;57.74;100796.80;463889;112;922888;-78
2021/09/12 00:19:36;;;;;;;9.91;6.14;;;;;;;17.10;57.85;100790.45;461887;112;930545;-78
2021/09/12 00:20:41;;;;;;;9.22;6.29;;;;;;;17.09;57.86;100797.07;463992;112;930549;-78
2021/09/12 00:21:44;;;;;;;7.91;6.40;;;;;;;17.08;57.86;100798.16;465010;112;922879;-78
2021/09/12 00:22:48;;;;;;;6.81;6.17;;;;;;;17.05;58.00;100806.91;462614;112;930546;-78
2021/09/12 00:23:52;;;;;;;12.43;6.41;;;;;;;17.05;58.06;100790.38;464653;112;922597;-79
2021/09/12 00:24:56;;;;;;;12.93;6.46;;;;;;;17.05;58.05;100796.72;463344;112;923009;-78
2021/09/12 00:25:59;;;;;;;8.84;6.49;;;;;;;17.02;58.04;100797.24;465396;112;930531;-77
2021/09/12 00:27:03;;;;;;;8.81;6.32;;;;;;;17.00;58.07;100790.30;463802;112;922585;-77
2021/09/12 00:28:06;;;;;;;13.41;6.76;;;;;;;16.97;58.10;100794.41;464696;112;922183;-78
2021/09/12 00:29:10;;;;;;;16.76;7.03;;;;;;;16.93;58.11;100795.14;465768;112;922589;-79
2021/09/12 00:30:14;;;;;;;7.21;6.43;;;;;;;16.88;58.16;100790.39;465232;112;925043;-78
2021/09/12 00:31:18;;;;;;;10.26;6.53;;;;;;;16.82;58.23;100785.87;463786;112;922489;-79
2021/09/12 00:32:21;;;;;;;10.21;6.86;;;;;;;16.76;58.33;100788.83;464236;112;930123;-79
2021/09/12 00:33:27;;;;;;;12.07;6.29;;;;;;;16.70;58.49;100784.32;464345;112;927166;-78
2021/09/12 00:34:30;;;;;;;7.51;6.67;;;;;;;16.64;58.60;100789.75;464964;112;930621;-78
2021/09/12 00:35:34;;;;;;;13.55;6.95;;;;;;;16.59;58.74;100781.37;464457;112;922653;-77
2021/09/12 00:36:40;;;;;;;7.65;5.85;;;;;;;16.55;58.79;100776.59;463148;112;930558;-78
2021/09/12 00:37:47;;;;;;;10.63;6.41;;;;;;;16.48;58.81;100779.53;464581;112;922523;-77
2021/09/12 00:38:49;;;;;;;9.42;6.55;;;;;;;16.48;58.81;100779.53;462947;112;923073;-77
2021/09/12 00:39:52;;;;;;;8.35;6.34;;;;;;;16.45;59.13;100777.25;460985;112;922721;-78
2021/09/12 00:41:00;;;;;;;7.31;5.49;;;;;;;16.43;59.20;100770.34;461851;112;930533;-78
2021/09/12 00:42:03;;;;;;;7.14;6.43;;;;;;;16.40;59.31;100768.91;452936;115;922980;-78
2021/09/12 00:43:07;;;;;;;7.63;6.78;;;;;;;16.39;59.45;100769.15;455762;112;923195;-78
2021/09/12 00:44:17;;;;;;;6.40;5.82;;;;;;;16.39;59.50;100775.48;462750;112;922531;-79
2021/09/12 00:45:18;;;;;;;6.94;6.27;;;;;;;16.38;59.56;100764.72;464327;112;930513;-78
2021/09/12 00:46:22;;;;;;;8.44;6.29;;;;;;;16.38;59.70;100768.31;463479;112;922835;-78
2021/09/12 00:47:26;;;;;;;7.28;6.62;;;;;;;16.41;59.72;100767.00;463695;112;922497;-77
2021/09/12 00:48:30;;;;;;;7.22;5.87;;;;;;;16.42;59.76;100766.75;467843;112;930622;-77
2021/09/12 00:49:33;;;;;;;7.34;6.59;;;;;;;16.44;59.81;100771.98;464339;112;922667;-78
2021/09/12 00:50:38;;;;;;;9.09;6.54;;;;;;;16.45;59.82;100774.50;462290;112;922681;-78
2021/09/12 00:51:42;;;;;;;6.76;6.03;;;;;;;16.46;59.85;100776.17;464268;112;922963;-78
2021/09/12 00:52:46;;;;;;;11.38;6.65;;;;;;;16.49;59.83;100772.07;466300;112;922983;-79
2021/09/12 00:53:53;;;;;;;7.26;6.59;;;;;;;16.50;59.78;100773.75;464007;112;930496;-78
2021/09/12 00:54:59;;;;;;;6.94;5.99;;;;;;;16.48;59.71;100768.52;464096;112;922645;-78
2021/09/12 00:56:04;;;;;;;7.22;6.45;;;;;;;16.46;59.73;100767.08;465082;112;922554;-78
2021/09/12 00:57:10;;;;;;;8.96;5.79;;;;;;;16.45;59.77;100766.24;461700;112;922593;-79
2021/09/12 00:58:17;;;;;;;8.77;6.38;;;;;;;16.45;59.82;100765.41;461341;112;930708;-78
2021/09/12 00:59:22;;;;;;;6.09;5.61;;;;;;;16.45;59.78;100768.16;462738;112;923016;-79
2021/09/12 01:00:27;;;;;;;6.52;5.84;;;;;;;16.44;59.74;100771.98;462467;112;923555;-78
2021/09/12 01:01:33;;;;;;;6.61;6.01;;;;;;;16.42;59.82;100768.67;455136;114;922913;-77
2021/09/12 01:02:38;;;;;;;6.50;5.90;;;;;;;16.42;59.85;100765.92;454784;114;930613;-78
2021/09/12 01:03:41;;;;;;;8.34;6.38;;;;;;;16.41;59.78;100765.08;462213;112;923493;-79
2021/09/12 01:04:45;;;;;;;8.48;6.20;;;;;;;16.37;60.10;100760.33;467592;112;930620;-77
2021/09/12 01:05:49;;;;;;;8.22;6.24;;;;;;;16.37;60.10;100760.33;461232;112;930383;-79
2021/09/12 01:06:54;;;;;;;8.44;6.20;;;;;;;16.37;59.95;100758.41;462096;112;922662;-78
2021/09/12 01:07:57;;;;;;;11.47;6.48;;;;;;;16.37;59.99;100763.08;463957;112;923110;-77
2021/09/12 01:09:03;;;;;;;7.09;6.48;;;;;;;16.36;60.02;100759.48;462953;112;922832;-78
2021/09/12 01:10:09;;;;;;;10.53;6.47;;;;;;;16.37;60.11;100761.17;462173;112;930595;-78
2021/09/12 01:11:14;;;;;;;9.72;6.26;;;;;;;16.38;60.18;100768.31;463432;112;922514;-79
2021/09/12 01:12:18;;;;;;;8.24;6.06;;;;;;;16.36;60.27;100759.48;463124;112;922515;-78
2021/09/12 01:13:21;;;;;;;7.08;6.11;;;;;;;16.36;60.31;100764.99;463213;112;923088;-78
2021/09/12 01:14:26;;;;;;;8.12;7.31;;;;;;;16.36;60.33;100758.66;464413;112;930403;-78
2021/09/12 01:15:30;;;;;;;11.68;7.23;;;;;;;16.34;60.34;100758.89;465415;112;930672;-79
2021/09/12 01:16:34;;;;;;;7.39;6.71;;;;;;;16.33;60.37;100756.38;465464;112;922200;-77
2021/09/12 01:17:38;;;;;;;6.89;6.28;;;;;;;16.31;60.47;100762.16;468225;112;922607;-79
2021/09/12 01:18:43;;;;;;;10.49;6.72;;;;;;;16.31;60.58;100758.56;464057;112;923244;-79
2021/09/12 01:19:47;;;;;;;15.21;6.36;;;;;;;16.31;60.66;100750.31;462525;112;922951;-78
2021/09/12 01:20:52;;;;;;;12.94;6.33;;;;;;;16.30;60.77;100743.97;463570;112;923113;-79
2021/09/12 01:21:58;;;;;;;7.53;6.81;;;;;;;16.30;60.87;100756.89;463797;112;922877;-78
2021/09/12 01:23:03;;;;;;;7.42;6.72;;;;;;;16.30;60.97;100754.14;463426;112;923008;-78
2021/09/12 01:24:11;;;;;;;7.29;5.97;;;;;;;16.30;61.06;100748.64;463288;112;922579;-79
2021/09/12 01:25:14;;;;;;;8.76;6.41;;;;;;;16.30;61.20;100751.39;460629;112;922433;-79
2021/09/12 01:26:23;;;;;;;7.14;6.52;;;;;;;16.31;61.29;100747.56;463606;112;922399;-78
2021/09/12 01:27:27;;;;;;;9.41;6.74;;;;;;;16.31;61.38;100744.80;465231;112;922599;-77
2021/09/12 01:28:30;;;;;;;10.25;6.94;;;;;;;16.32;61.39;100752.80;462406;112;923043;-78
2021/09/12 01:29:34;;;;;;;7.58;6.48;;;;;;;16.35;61.41;100751.47;466076;112;930591;-78
2021/09/12 01:30:38;;;;;;;7.91;5.95;;;;;;;16.37;61.42;100757.58;462380;112;922537;-79
2021/09/12 01:31:42;;;;;;;8.36;6.55;;;;;;;16.37;61.38;100752.07;463211;112;930709;-79
2021/09/12 01:32:45;;;;;;;8.94;5.62;;;;;;;16.36;61.34;100748.48;464915;112;923316;-77
2021/09/12 01:33:49;;;;;;;7.31;6.24;;;;;;;16.37;61.32;100754.83;464107;112;930503;-77
2021/09/12 01:34:53;;;;;;;9.94;7.36;;;;;;;16.36;61.30;100753.15;464930;112;922550;-77
2021/09/12 01:35:56;;;;;;;7.84;6.56;;;;;;;16.35;61.27;100752.31;464026;112;930486;-77
2021/09/12 01:37:00;;;;;;;10.89;6.65;;;;;;;16.34;61.26;100747.89;463775;112;922277;-78
2021/09/12 01:38:03;;;;;;;8.54;6.25;;;;;;;16.33;61.20;100746.21;463304;112;930479;-79
2021/09/12 01:39:07;;;;;;;9.30;6.69;;;;;;;16.30;61.20;100754.14;464220;112;930446;-79
2021/09/12 01:40:12;;;;;;;8.96;6.25;;;;;;;16.25;61.24;100747.47;462657;112;922512;-77
2021/09/12 01:41:15;;;;;;;10.56;7.59;;;;;;;16.23;61.27;100748.79;463664;112;922559;-78
2021/09/12 01:42:19;;;;;;;7.89;6.54;;;;;;;16.18;61.34;100744.03;462780;112;928920;-79
2021/09/12 01:43:22;;;;;;;9.71;7.57;;;;;;;16.14;61.42;100756.63;462030;112;930403;-77
2021/09/12 01:44:26;;;;;;;10.82;7.34;;;;;;;16.12;61.46;100749.69;463641;112;930644;-78
2021/09/12 01:45:29;;;;;;;9.33;7.42;;;;;;;16.09;61.56;100750.19;463302;112;923166;-78
2021/09/12 01:46:34;;;;;;;18.88;7.36;;;;;;;16.07;61.66;100750.43;464146;112;930482;-79
2021/09/12 01:47:40;;;;;;;8.04;6.71;;;;;;;16.08;61.75;100751.27;462452;112;922880;-79
2021/09/12 01:48:44;;;;;;;8.33;7.39;;;;;;;16.13;62.08;100754.11;464372;112;922573;-77
2021/09/12 01:49:48;;;;;;;7.79;6.79;;;;;;;16.13;62.08;100754.11;466084;112;922630;-79
2021/09/12 01:50:52;;;;;;;8.78;7.06;;;;;;;16.15;61.92;100752.77;463816;112;922536;-79
2021/09/12 01:51:55;;;;;;;11.20;7.33;;;;;;;16.15;61.95;100747.27;463041;112;922593;-78
2021/09/12 01:52:59;;;;;;;9.35;6.93;;;;;;;16.16;62.01;100750.84;464210;112;930471;-78
2021/09/12 01:54:02;;;;;;;9.49;7.48;;;;;;;16.17;62.04;100750.61;462352;112;930514;-79
2021/09/12 01:55:07;;;;;;;10.05;6.82;;;;;;;16.18;62.06;100755.04;463455;112;930654;-78
2021/09/12 01:56:11;;;;;;;16.38;6.87;;;;;;;16.20;62.06;100747.38;460049;112;930704;-78
2021/09/12 01:57:16;;;;;;;7.94;7.24;;;;;;;16.22;62.08;100741.61;464211;112;930422;-78
2021/09/12 01:58:19;;;;;;;11.10;6.86;;;;;;;16.23;62.08;100751.54;460392;113;923402;-79
2021/09/12 01:59:23;;;;;;;8.38;7.46;;;;;;;16.22;62.12;100750.70;453279;115;922702;-78
2021/09/12 02:00:28;;;;;;;7.82;7.12;;;;;;;16.22;62.13;100747.11;455045;112;923148;-78
2021/09/12 02:01:32;;;;;;;12.23;7.17;;;;;;;16.23;62.17;100748.79;465956;112;923142;-78
2021/09/12 02:02:36;;;;;;;12.62;7.68;;;;;;;16.22;62.14;100749.86;464407;112;930613;-77
2021/09/12 02:03:40;;;;;;;9.42;7.67;;;;;;;16.20;62.17;100750.14;464004;112;930999;-79
2021/09/12 02:04:44;;;;;;;8.26;6.72;;;;;;;16.21;62.25;100754.53;464649;112;922193;-78
2021/09/12 02:05:48;;;;;;;10.11;6.92;;;;;;;16.23;62.32;100749.63;462637;112;922367;-78
2021/09/12 02:06:51;;;;;;;10.23;7.32;;;;;;;16.24;62.31;100753.21;464386;112;930221;-78
2021/09/12 02:07:55;;;;;;;11.01;6.64;;;;;;;16.25;62.29;100752.97;463443;112;922698;-78
2021/09/12 02:08:58;;;;;;;12.24;7.08;;;;;;;16.26;62.18;100754.62;464986;112;922498;-77
2021/09/12 02:10:02;;;;;;;10.86;7.25;;;;;;;16.27;62.11;100756.30;465025;112;922675;-77
2021/09/12 02:11:05;;;;;;;10.76;7.51;;;;;;;16.28;61.97;100757.97;464785;112;922625;-78
2021/09/12 02:12:09;;;;;;;21.09;8.09;;;;;;;16.28;61.94;100754.38;463607;112;930464;-77
2021/09/12 02:13:13;;;;;;;12.06;7.36;;;;;;;16.29;61.87;100756.05;466050;112;922721;-78
2021/09/12 02:14:16;;;;;;;8.94;8.23;;;;;;;16.30;61.79;100754.14;454735;115;930640;-78
2021/09/12 02:15:19;;;;;;;11.65;7.67;;;;;;;16.32;61.73;100763.80;454325;112;930611;-78
2021/09/12 02:16:24;;;;;;;13.24;7.00;;;;;;;16.32;61.69;100751.98;463075;112;922986;-78
2021/09/12 02:17:27;;;;;;;13.65;7.57;;;;;;;16.31;61.63;100753.06;463272;112;922586;-78
2021/09/12 02:18:31;;;;;;;12.17;7.25;;;;;;;16.30;61.54;100751.39;462430;112;922500;-79
2021/09/12 02:19:34;;;;;;;8.96;7.86;;;;;;;16.30;61.46;100759.64;465210;112;923038;-78
2021/09/12 02:20:40;;;;;;;8.10;7.39;;;;;;;16.31;61.29;100764.07;461911;112;925684;-78
2021/09/12 02:21:44;;;;;;;9.64;7.94;;;;;;;16.31;61.18;100758.56;464330;112;922619;-77
2021/09/12 02:22:47;;;;;;;7.86;7.03;;;;;;;16.31;61.04;100755.81;466252;112;923037;-78
2021/09/12 02:23:51;;;;;;;10.77;7.17;;;;;;;16.30;60.88;100760.48;463565;112;923192;-79
2021/09/12 02:24:54;;;;;;;7.16;6.56;;;;;;;16.30;60.76;100756.89;463005;112;923122;-79
2021/09/12 02:25:58;;;;;;;7.72;6.67;;;;;;;16.30;60.55;100754.14;461763;112;923013;-78
2021/09/12 02:27:01;;;;;;;7.58;6.87;;;;;;;16.30;60.26;100760.48;464064;112;923152;-79
2021/09/12 02:28:05;;;;;;;9.66;7.07;;;;;;;16.30;60.05;100756.89;464926;111;930601;-79
2021/09/12 02:29:09;;;;;;;9.14;6.40;;;;;;;16.27;59.94;100755.45;463042;112;930524;-79
2021/09/12 02:30:13;;;;;;;7.19;6.58;;;;;;;16.25;59.94;100755.73;464717;112;930509;-77
2021/09/12 02:31:17;;;;;;;9.16;6.82;;;;;;;16.25;59.90;100754.89;463373;112;922476;-78
2021/09/12 02:32:20;;;;;;;7.39;6.66;;;;;;;16.24;59.87;100751.30;464460;112;922563;-78
2021/09/12 02:33:24;;;;;;;7.14;6.49;;;;;;;16.25;59.80;100758.48;463138;112;930510;-79
2021/09/12 02:34:27;;;;;;;7.60;6.37;;;;;;;16.26;59.68;100756.56;461644;112;923171;-79
2021/09/12 02:35:31;;;;;;;10.43;7.13;;;;;;;16.26;59.61;100759.31;462199;114;922949;-79
2021/09/12 02:36:36;;;;;;;6.84;6.29;;;;;;;16.25;59.53;100755.73;461874;114;930423;-78
2021/09/12 02:37:39;;;;;;;7.46;6.84;;;;;;;16.26;59.51;100749.12;460952;113;922898;-79
2021/09/12 02:38:43;;;;;;;7.92;6.39;;;;;;;16.24;59.44;100754.05;462308;114;922743;-79
2021/09/12 02:39:46;;;;;;;7.47;6.76;;;;;;;16.22;59.40;100752.62;461179;114;930583;-79
2021/09/12 02:40:50;;;;;;;7.33;6.62;;;;;;;16.17;59.45;100756.11;462145;114;930960;-78
2021/09/12 02:41:53;;;;;;;9.39;6.64;;;;;;;16.13;59.60;100754.11;461357;114;930630;-78
2021/09/12 02:42:57;;;;;;;8.31;6.81;;;;;;;16.10;59.66;100757.34;462578;114;922912;-77
2021/09/12 02:44:01;;;;;;;7.83;7.14;;;;;;;16.06;59.77;100754.26;461701;114;924590;-78
2021/09/12 02:45:09;;;;;;;9.66;7.44;;;;;;;16.02;59.85;100755.84;461848;114;930590;-78
2021/09/12 02:46:14;;;;;;;9.46;7.20;;;;;;;15.97;59.92;100754.91;461268;114;930743;-78
2021/09/12 02:47:18;;;;;;;10.35;7.64;;;;;;;15.93;60.06;100760.08;461826;114;923141;-78
2021/09/12 02:48:21;;;;;;;7.96;6.99;;;;;;;15.89;60.12;100755.29;461482;114;930497;-77
2021/09/12 02:49:25;;;;;;;9.76;7.11;;;;;;;15.84;60.25;100756.86;461673;112;922793;-77
2021/09/12 02:50:30;;;;;;;9.52;7.60;;;;;;;15.80;60.40;100757.61;462432;114;930494;-79
2021/09/12 02:51:33;;;;;;;7.88;6.97;;;;;;;15.78;60.59;100762.50;462527;113;922714;-78
2021/09/12 02:52:37;;;;;;;8.20;7.46;;;;;;;15.75;60.69;100757.51;463059;114;922258;-78
2021/09/12 02:53:40;;;;;;;8.05;7.31;;;;;;;15.75;60.91;100760.25;463760;114;922137;-78
2021/09/12 02:54:44;;;;;;;8.56;7.52;;;;;;;15.75;61.04;100763.84;462418;114;930103;-78
2021/09/12 02:55:47;;;;;;;8.73;7.77;;;;;;;15.77;61.04;100764.41;462331;114;930287;-78
2021/09/12 02:56:51;;;;;;;7.62;6.85;;;;;;;15.79;61.04;100759.52;453433;115;922687;-77
2021/09/12 02:57:55;;;;;;;8.78;7.12;;;;;;;15.80;61.02;100763.95;454807;114;923078;-77
2021/09/12 02:58:58;;;;;;;8.34;7.54;;;;;;;15.83;60.99;100760.69;462072;114;930475;-78
2021/09/12 03:00:02;;;;;;;8.34;6.86;;;;;;;15.85;60.93;100763.20;461353;114;922606;-77
2021/09/12 03:01:06;;;;;;;9.79;7.81;;;;;;;15.87;60.91;100758.30;461207;114;922588;-78
2021/09/12 03:02:10;;;;;;;7.88;6.86;;;;;;;15.88;60.82;100762.70;461311;114;922856;-78
2021/09/12 03:03:13;;;;;;;8.19;6.61;;;;;;;15.91;60.75;100762.23;461580;114;923012;-78
2021/09/12 03:04:17;;;;;;;8.49;7.59;;;;;;;15.92;60.72;100763.06;461210;114;930485;-78
2021/09/12 03:05:20;;;;;;;8.34;6.65;;;;;;;15.93;60.67;100759.23;461530;114;930632;-77
2021/09/12 03:06:24;;;;;;;12.95;6.85;;;;;;;15.93;60.69;100757.33;461121;114;923295;-78
2021/09/12 03:07:27;;;;;;;7.94;6.99;;;;;;;15.95;60.65;100762.56;462150;114;930560;-79
2021/09/12 03:08:31;;;;;;;8.66;7.17;;;;;;;15.95;60.65;100763.39;462443;114;930296;-79
2021/09/12 03:09:34;;;;;;;7.64;6.91;;;;;;;15.96;60.62;100764.23;462378;114;922604;-78
2021/09/12 03:10:39;;;;;;;12.31;7.84;;;;;;;15.97;60.59;100760.41;461997;114;930336;-78
2021/09/12 03:11:42;;;;;;;7.33;6.64;;;;;;;15.97;60.56;100755.75;462149;114;930613;-78
2021/09/12 03:12:46;;;;;;;7.88;6.73;;;;;;;15.98;60.51;100762.92;452825;116;930582;-78
2021/09/12 03:13:51;;;;;;;7.97;7.19;;;;;;;15.99;60.46;100763.76;455261;114;930621;-78
2021/09/12 03:14:54;;;;;;;8.56;6.76;;;;;;;15.99;60.42;100761.81;461339;114;922445;-78
2021/09/12 03:15:58;;;;;;;7.49;6.79;;;;;;;16.00;60.38;100760.73;461783;114;922724;-78
2021/09/12 03:17:01;;;;;;;7.21;6.39;;;;;;;16.00;60.37;100763.48;462480;114;922933;-78
2021/09/12 03:18:05;;;;;;;8.03;6.52;;;;;;;16.01;60.32;100759.67;462682;114;922639;-78
2021/09/12 03:19:08;;;;;;;7.62;6.55;;;;;;;16.02;60.32;100757.75;461697;114;930526;-78
2021/09/12 03:20:12;;;;;;;16.31;7.11;;;;;;;16.02;60.33;100758.59;462549;114;922502;-77
2021/09/12 03:21:17;;;;;;;10.29;6.30;;;;;;;16.02;60.26;100761.34;461542;114;930455;-77
2021/09/12 03:22:21;;;;;;;8.30;6.89;;;;;;;16.03;60.22;100767.68;461857;114;922598;-78
2021/09/12 03:23:24;;;;;;;7.82;6.46;;;;;;;16.03;60.19;100763.02;462098;114;922707;-77
2021/09/12 03:24:28;;;;;;;8.09;7.01;;;;;;;16.02;60.11;100766.00;461475;114;930495;-78
2021/09/12 03:25:32;;;;;;;14.53;6.91;;;;;;;16.00;60.08;100762.66;462533;114;923082;-78
2021/09/12 03:26:37;;;;;;;6.98;6.33;;;;;;;16.00;60.12;100765.41;462411;114;930457;-78
2021/09/12 03:27:41;;;;;;;7.92;6.51;;;;;;;15.98;60.11;100765.67;462275;114;922624;-78
2021/09/12 03:28:44;;;;;;;6.83;6.19;;;;;;;15.99;60.10;100764.56;461932;114;922462;-79
2021/09/12 03:29:48;;;;;;;7.23;6.33;;;;;;;15.97;60.07;100761.25;461827;114;922966;-78
2021/09/12 03:30:52;;;;;;;6.86;6.32;;;;;;;15.96;60.08;100764.23;461888;114;922986;-78
2021/09/12 03:32:14;;;;;;;11.30;7.17;;;;;;;15.91;60.08;100762.23;462219;114;922546;-78
2021/09/12 03:33:17;;;;;;;7.81;7.03;;;;;;;15.86;60.16;100764.88;461498;114;930538;-79
2021/09/12 03:34:21;;;;;;;7.42;6.36;;;;;;;15.78;60.28;100759.75;462367;112;922599;-79
2021/09/12 03:35:24;;;;;;;10.21;6.33;;;;;;;15.72;60.43;100763.48;464038;112;922674;-77
2021/09/12 03:36:28;;;;;;;12.85;6.50;;;;;;;15.67;60.56;100757.88;453512;115;930559;-79
2021/09/12 03:37:32;;;;;;;11.67;6.91;;;;;;;15.60;60.73;100763.51;456854;112;923141;-77
2021/09/12 03:38:35;;;;;;;9.27;7.14;;;;;;;15.57;61.01;100766.76;463461;112;930755;-79
2021/09/12 03:39:39;;;;;;;13.23;6.73;;;;;;;15.56;61.23;100769.74;467140;112;930947;-79
2021/09/12 03:40:44;;;;;;;13.74;6.66;;;;;;;15.55;61.33;100759.85;465302;112;930145;-78
2021/09/12 03:41:48;;;;;;;10.38;7.08;;;;;;;15.56;61.47;100766.99;463019;112;922849;-77
2021/09/12 03:42:51;;;;;;;13.53;7.08;;;;;;;15.56;61.62;100765.08;464081;112;930162;-78
2021/09/12 03:43:55;;;;;;;7.88;6.62;;;;;;;15.58;61.76;100771.19;462661;112;922848;-77
2021/09/12 03:44:58;;;;;;;10.16;6.92;;;;;;;15.64;61.65;100772.96;463807;112;922441;-78
2021/09/12 03:46:02;;;;;;;9.20;6.62;;;;;;;15.64;61.65;100772.96;464768;112;922214;-77
2021/09/12 03:47:06;;;;;;;6.61;6.09;;;;;;;15.68;61.97;100778.80;461530;112;930614;-79
2021/09/12 03:48:09;;;;;;;6.95;6.28;;;;;;;15.71;61.96;100770.08;463654;112;923014;-78
2021/09/12 03:49:13;;;;;;;7.56;6.71;;;;;;;15.73;61.91;100771.48;462794;112;922534;-79
2021/09/12 03:50:18;;;;;;;9.78;6.29;;;;;;;15.76;61.81;100782.02;463239;112;930509;-79
2021/09/12 03:51:21;;;;;;;6.47;5.92;;;;;;;15.79;61.67;100773.27;462955;112;922596;-78
2021/09/12 03:52:25;;;;;;;7.99;6.40;;;;;;;15.82;61.46;100778.27;457412;115;923331;-79
2021/09/12 03:53:28;;;;;;;9.61;7.07;;;;;;;15.84;61.33;100773.36;457558;112;922810;-79
2021/09/12 03:54:32;;;;;;;9.73;6.83;;;;;;;15.87;61.20;100777.55;464103;112;922898;-78
2021/09/12 03:55:35;;;;;;;15.30;7.20;;;;;;;15.88;61.08;100776.45;463024;112;930574;-79
2021/09/12 03:56:39;;;;;;;28.58;7.88;;;;;;;15.91;61.02;100783.39;460689;112;930430;-79
2021/09/12 03:57:42;;;;;;;15.46;7.14;;;;;;;15.90;60.97;100788.05;462080;112;922456;-78
2021/09/12 03:58:46;;;;;;;8.99;7.41;;;;;;;15.88;61.02;100783.89;463273;112;930129;-78
2021/09/12 03:59:52;;;;;;;10.32;6.71;;;;;;;15.87;61.07;100782.22;462582;112;922518;-78
2021/09/12 04:00:56;;;;;;;8.83;6.54;;;;;;;15.84;61.13;100780.78;462544;112;922451;-77
2021/09/12 04:02:00;;;;;;;8.16;6.56;;;;;;;15.80;61.19;100776.85;464201;112;922715;-78
2021/09/12 04:03:04;;;;;;;15.86;7.93;;;;;;;15.77;61.19;100782.82;464330;112;922492;-79
2021/09/12 04:04:08;;;;;;;12.54;7.28;;;;;;;15.71;61.17;100781.88;462739;112;929897;-78
2021/09/12 04:05:11;;;;;;;14.13;7.34;;;;;;;15.69;61.25;100785.97;462338;112;922690;-78
2021/09/12 04:06:17;;;;;;;8.87;7.12;;;;;;;15.67;61.36;100788.12;464784;112;922589;-78
2021/09/12 04:07:20;;;;;;;10.29;6.94;;;;;;;15.66;61.42;100789.19;463934;112;922649;-78
2021/09/12 04:08:24;;;;;;;10.32;6.91;;;;;;;15.68;61.48;100789.80;463560;112;922810;-78
2021/09/12 04:09:27;;;;;;;10.61;7.41;;;;;;;15.70;61.52;100788.48;464228;112;925527;-78
2021/09/12 04:10:32;;;;;;;13.18;7.46;;;;;;;15.72;61.60;100790.97;462453;112;923333;-78
2021/09/12 04:11:36;;;;;;;13.54;7.81;;;;;;;15.73;61.57;100789.89;464391;112;922505;-78
2021/09/12 04:12:39;;;;;;;12.04;7.82;;;;;;;15.73;61.57;100787.14;462718;112;930632;-77
2021/09/12 04:13:43;;;;;;;8.42;6.62;;;;;;;15.74;61.61;100791.57;462345;112;930591;-78
2021/09/12 04:14:47;;;;;;;11.28;6.95;;;;;;;15.72;61.67;100791.80;460704;113;923067;-78
2021/09/12 04:15:50;;;;;;;9.95;7.34;;;;;;;15.73;61.76;100787.98;463894;112;922548;-77
2021/09/12 04:16:56;;;;;;;10.65;7.03;;;;;;;15.74;61.82;100786.08;464495;112;930571;-79
2021/09/12 04:17:59;;;;;;;8.94;7.08;;;;;;;15.75;61.87;100779.50;453757;116;922598;-78
2021/09/12 04:19:03;;;;;;;12.99;6.94;;;;;;;15.73;61.85;100781.64;454929;114;922732;-78
2021/09/12 04:20:08;;;;;;;10.25;6.99;;;;;;;15.71;61.87;100786.58;463734;112;922679;-78
2021/09/12 04:21:12;;;;;;;9.00;7.47;;;;;;;15.70;61.95;100785.73;465961;112;923048;-79
2021/09/12 04:22:15;;;;;;;7.80;6.99;;;;;;;15.69;62.01;100783.22;464115;112;922549;-79
2021/09/12 04:23:18;;;;;;;8.91;7.15;;;;;;;15.68;62.11;100793.37;463234;112;922472;-78
2021/09/12 04:24:24;;;;;;;16.14;7.16;;;;;;;15.68;62.12;100787.88;464069;112;922534;-78
2021/09/12 04:25:27;;;;;;;11.23;6.75;;;;;;;15.69;62.23;100785.97;461740;112;930580;-78
2021/09/12 04:26:31;;;;;;;14.62;7.27;;;;;;;15.70;62.37;100791.23;464402;112;922746;-80
2021/09/12 04:27:35;;;;;;;7.74;6.95;;;;;;;15.74;62.43;100788.83;462401;112;922925;-79
2021/09/12 04:28:38;;;;;;;8.81;6.92;;;;;;;15.79;62.38;100795.27;463893;112;922229;-77
2021/09/12 04:29:43;;;;;;;11.53;7.81;;;;;;;15.84;62.29;100787.11;465652;112;923443;-78
2021/09/12 04:30:47;;;;;;;10.53;7.02;;;;;;;15.91;62.22;100789.73;462423;112;922756;-78
2021/09/12 04:31:50;;;;;;;9.35;6.81;;;;;;;15.96;62.11;100786.23;465705;112;922130;-78
2021/09/12 04:32:53;;;;;;;11.59;7.21;;;;;;;16.01;61.98;100784.42;464402;112;922782;-77
2021/09/12 04:33:57;;;;;;;8.46;7.05;;;;;;;16.07;61.93;100793.61;464148;112;923139;-78
2021/09/12 04:35:01;;;;;;;11.27;6.65;;;;;;;16.12;61.73;100785.45;463799;112;922885;-79
2021/09/12 04:36:04;;;;;;;10.68;7.15;;;;;;;16.16;61.60;100783.86;463705;112;930743;-78
2021/09/12 04:37:08;;;;;;;10.04;6.98;;;;;;;16.20;61.49;100787.81;467425;112;922494;-79
2021/09/12 04:38:15;;;;;;;11.53;7.50;;;;;;;16.22;61.40;100786.47;464055;112;930490;-79
2021/09/12 04:39:17;;;;;;;9.19;7.48;;;;;;;16.26;61.35;100786.83;462854;112;930422;-78
2021/09/12 04:40:21;;;;;;;13.91;7.75;;;;;;;16.29;61.30;100786.32;464666;112;923341;-79
2021/09/12 04:41:24;;;;;;;11.67;7.66;;;;;;;16.33;61.27;100781.14;463301;112;930442;-79
2021/09/12 04:42:28;;;;;;;16.59;8.31;;;;;;;16.36;61.20;100786.17;464723;112;922833;-79
2021/09/12 04:43:32;;;;;;;14.47;8.50;;;;;;;16.40;61.01;100781.83;464906;112;922530;-78
2021/09/12 04:44:35;;;;;;;11.82;7.72;;;;;;;16.44;60.83;100783.00;464041;112;922723;-79
2021/09/12 04:45:39;;;;;;;12.44;7.27;;;;;;;16.48;60.70;100784.20;462494;112;922952;-80
2021/09/12 04:46:43;;;;;;;9.89;7.98;;;;;;;16.51;60.53;100789.19;463299;112;930542;-79
2021/09/12 04:47:46;;;;;;;9.28;7.40;;;;;;;16.54;60.31;100785.95;461723;112;922462;-78
2021/09/12 04:48:50;;;;;;;14.68;7.52;;;;;;;16.54;60.16;100785.95;465148;112;930466;-79
2021/09/12 04:49:55;;;;;;;13.36;7.11;;;;;;;16.54;60.11;100780.45;463030;112;922649;-79
2021/09/12 04:50:59;;;;;;;9.36;7.39;;;;;;;16.51;60.11;100784.52;464908;112;922527;-78
2021/09/12 04:52:02;;;;;;;8.98;6.93;;;;;;;16.50;60.22;100779.25;464805;112;930651;-79
2021/09/12 04:53:06;;;;;;;16.71;7.96;;;;;;;16.49;60.29;100783.08;465608;112;922487;-78